createdAt,value
2022-11-14T00:01:24.533Z,8.40
2022-11-14T00:03:52.295Z,8.20
2022-11-14T00:06:20.043Z,8.10
2022-11-14T00:08:47.762Z,8.00
2022-11-14T00:11:15.436Z,8.00
2022-11-14T00:13:43.113Z,8.10
2022-11-14T00:16:10.810Z,8.20
2022-11-14T00:18:39.830Z,8.00
2022-11-14T00:21:07.658Z,8.00
2022-11-14T00:23:35.367Z,8.10
2022-11-14T00:26:03.080Z,8.10
2022-11-14T00:28:31.114Z,8.10
2022-11-14T00:30:59.010Z,8.20
2022-11-14T00:33:26.707Z,8.20
2022-11-14T00:35:56.774Z,8.00
2022-11-14T00:38:24.874Z,7.90
2022-11-14T00:40:52.577Z,8.00
2022-11-14T00:43:20.255Z,8.10
2022-11-14T00:45:48.679Z,8.00
2022-11-14T00:48:16.764Z,8.00
2022-11-14T00:50:44.459Z,8.10
2022-11-14T00:53:13.566Z,8.20
2022-11-14T00:55:41.978Z,8.20
2022-11-14T00:58:09.714Z,8.30
2022-11-14T01:00:37.477Z,8.30
2022-11-14T01:03:05.241Z,8.00
2022-11-14T01:05:32.917Z,7.90
2022-11-14T01:08:00.673Z,7.90
2022-11-14T01:10:29.697Z,7.90
2022-11-14T01:12:57.662Z,7.90
2022-11-14T01:15:25.492Z,8.00
2022-11-14T01:17:53.172Z,7.90
2022-11-14T01:20:20.824Z,7.70
2022-11-14T01:22:48.502Z,7.70
2022-11-14T01:25:16.420Z,7.70
2022-11-14T01:27:45.465Z,7.70
2022-11-14T01:30:13.822Z,7.70
2022-11-14T01:32:41.485Z,7.60
2022-11-14T01:35:09.334Z,7.60
2022-11-14T01:37:37.013Z,7.70
2022-11-14T01:40:04.922Z,7.70
2022-11-14T01:45:44.445Z,7.60
2022-11-14T01:48:19.034Z,7.50
2022-11-14T01:50:46.963Z,7.60
2022-11-14T01:53:14.642Z,7.50
2022-11-14T01:55:42.321Z,7.50
2022-11-14T01:58:10.415Z,7.50
2022-11-14T02:00:38.279Z,7.50
2022-11-14T02:03:05.972Z,7.30
2022-11-14T02:05:35.896Z,7.30
2022-11-14T02:08:03.909Z,7.10
2022-11-14T02:10:31.824Z,7.10
2022-11-14T02:12:59.517Z,7.10
2022-11-14T02:15:27.937Z,7.10
2022-11-14T02:17:56.256Z,7.10
2022-11-14T02:20:28.527Z,7.00
2022-11-14T02:22:56.293Z,7.00
2022-11-14T02:25:24.034Z,7.00
2022-11-14T02:27:51.820Z,6.90
2022-11-14T02:30:21.918Z,6.90
2022-11-14T02:35:38.670Z,6.40
2022-11-14T02:38:06.399Z,6.20
2022-11-14T02:40:34.109Z,6.30
2022-11-14T02:43:02.097Z,6.40
2022-11-14T02:45:29.801Z,6.50
2022-11-14T02:47:57.468Z,6.50
2022-11-14T02:50:25.183Z,6.50
2022-11-14T02:52:54.830Z,6.50
2022-11-14T02:55:22.868Z,6.50
2022-11-14T02:57:50.543Z,6.50
2022-11-14T03:00:18.977Z,6.60
2022-11-14T03:02:46.661Z,6.60
2022-11-14T03:05:14.400Z,6.60
2022-11-14T03:07:42.072Z,6.60
2022-11-14T03:10:11.710Z,6.40
2022-11-14T03:12:39.396Z,6.30
2022-11-14T03:15:07.638Z,6.30
2022-11-14T03:17:35.722Z,6.40
2022-11-14T03:20:03.451Z,6.40
2022-11-14T03:22:31.231Z,6.50
2022-11-14T03:24:58.945Z,6.50
2022-11-14T03:27:28.183Z,6.50
2022-11-14T03:29:55.858Z,6.50
2022-11-14T03:32:23.618Z,6.50
2022-11-14T03:34:51.342Z,6.50
2022-11-14T03:37:19.071Z,6.40
2022-11-14T03:39:46.736Z,6.30
2022-11-14T03:42:14.586Z,6.40
2022-11-14T03:44:43.622Z,6.40
2022-11-14T03:47:11.292Z,6.40
2022-11-14T03:49:38.993Z,6.30
2022-11-14T03:52:06.674Z,6.40
2022-11-14T03:54:34.357Z,6.40
2022-11-14T03:57:02.027Z,6.40
2022-11-14T03:59:29.753Z,6.40
2022-11-14T04:01:58.764Z,6.40
2022-11-14T04:04:26.459Z,6.30
2022-11-14T04:06:54.266Z,6.30
2022-11-14T04:09:21.998Z,6.20
2022-11-14T04:11:49.738Z,6.20
2022-11-14T04:14:17.404Z,6.30
2022-11-14T04:16:45.079Z,6.30
2022-11-14T04:19:14.093Z,6.40
2022-11-14T04:21:41.881Z,6.30
2022-11-14T04:24:11.193Z,6.40
2022-11-14T04:26:39.105Z,6.40
2022-11-14T04:29:06.804Z,6.40
2022-11-14T04:31:34.498Z,6.40
2022-11-14T04:34:02.314Z,6.20
2022-11-14T04:36:31.515Z,6.20
2022-11-14T04:38:59.270Z,6.10
2022-11-14T04:41:26.987Z,6.20
2022-11-14T04:43:54.676Z,6.30
2022-11-14T04:46:22.349Z,6.30
2022-11-14T04:48:50.143Z,6.40
2022-11-14T04:51:17.856Z,6.50
2022-11-14T04:53:46.869Z,6.50
2022-11-14T04:56:14.586Z,6.60
2022-11-14T04:58:42.291Z,6.70
2022-11-14T05:01:10.531Z,6.90
2022-11-14T05:03:38.288Z,6.80
2022-11-14T05:06:06.150Z,6.90
2022-11-14T05:08:33.842Z,6.90
2022-11-14T05:11:02.882Z,6.80
2022-11-14T05:13:30.820Z,6.80
2022-11-14T05:15:59.545Z,6.80
2022-11-14T05:18:27.521Z,6.70
2022-11-14T05:20:58.555Z,6.80
2022-11-14T05:23:26.238Z,6.80
2022-11-14T05:25:59.984Z,6.60
2022-11-14T05:28:29.411Z,6.70
2022-11-14T05:31:01.592Z,6.70
2022-11-14T05:33:29.274Z,6.90
2022-11-14T05:35:57.026Z,7.00
2022-11-14T05:38:24.841Z,7.00
2022-11-14T05:40:52.528Z,7.00
2022-11-14T05:43:20.221Z,7.10
2022-11-14T05:45:49.258Z,7.00
2022-11-14T05:48:16.928Z,7.20
2022-11-14T05:50:44.668Z,7.30
2022-11-14T05:53:12.345Z,7.20
2022-11-14T05:55:40.035Z,7.20
2022-11-14T05:58:07.805Z,7.20
2022-11-14T06:00:41.922Z,7.30
2022-11-14T06:03:15.942Z,7.40
2022-11-14T06:05:43.946Z,7.40
2022-11-14T06:08:11.626Z,7.50
2022-11-14T06:10:39.313Z,7.60
2022-11-14T06:13:07.004Z,7.50
2022-11-14T06:15:34.907Z,7.70
2022-11-14T06:18:02.596Z,7.80
2022-11-14T06:20:31.680Z,7.50
2022-11-14T06:22:59.364Z,7.30
2022-11-14T06:25:27.058Z,7.00
2022-11-14T06:27:54.766Z,6.80
2022-11-14T06:30:22.434Z,6.60
2022-11-14T06:32:50.109Z,6.50
2022-11-14T06:35:17.779Z,6.50
2022-11-14T06:37:46.777Z,6.40
2022-11-14T06:40:14.661Z,6.20
2022-11-14T06:42:42.482Z,6.00
2022-11-14T06:45:10.524Z,5.90
2022-11-14T06:47:38.208Z,5.90
2022-11-14T06:50:06.361Z,5.90
2022-11-14T06:52:34.046Z,5.90
2022-11-14T06:55:03.090Z,5.80
2022-11-14T06:57:30.914Z,5.80
2022-11-14T06:59:58.588Z,5.80
2022-11-14T07:02:26.277Z,5.70
2022-11-14T07:04:54.099Z,5.70
2022-11-14T07:07:21.822Z,5.80
2022-11-14T07:09:49.585Z,5.70
2022-11-14T07:12:18.618Z,5.70
2022-11-14T07:14:46.290Z,5.70
2022-11-14T07:17:14.053Z,5.80
2022-11-14T07:19:41.758Z,5.80
2022-11-14T07:22:09.447Z,5.80
2022-11-14T07:24:37.137Z,5.80
2022-11-14T07:27:08.606Z,5.80
2022-11-14T07:29:37.680Z,5.90
2022-11-14T07:32:05.626Z,5.80
2022-11-14T07:34:33.332Z,5.80
2022-11-14T07:37:01.183Z,5.80
2022-11-14T07:39:28.909Z,5.80
2022-11-14T07:41:56.643Z,5.80
2022-11-14T07:44:24.339Z,5.90
2022-11-14T07:46:53.379Z,5.80
2022-11-14T07:49:21.131Z,5.80
2022-11-14T07:51:48.816Z,5.80
2022-11-14T07:54:16.509Z,5.70
2022-11-14T07:56:44.195Z,5.80
2022-11-14T07:59:11.906Z,5.80
2022-11-14T08:01:39.901Z,5.80
2022-11-14T08:04:09.059Z,5.80
2022-11-14T08:06:36.728Z,5.80
2022-11-14T08:09:04.396Z,5.80
2022-11-14T08:11:50.132Z,5.90
2022-11-14T08:14:17.801Z,5.90
2022-11-14T08:16:45.491Z,6.00
2022-11-14T08:19:16.779Z,6.00
2022-11-14T08:21:44.464Z,6.10
2022-11-14T08:24:12.179Z,6.10
2022-11-14T08:26:39.909Z,6.10
2022-11-14T08:29:10.626Z,6.10
2022-11-14T08:31:38.298Z,6.10
2022-11-14T08:34:05.972Z,6.10
2022-11-14T08:36:34.972Z,6.00
2022-11-14T08:39:02.660Z,6.00
2022-11-14T08:41:30.568Z,6.00
2022-11-14T08:43:58.260Z,6.10
2022-11-14T08:46:25.968Z,6.10
2022-11-14T08:48:53.646Z,6.10
2022-11-14T08:51:21.334Z,6.20
2022-11-14T08:53:52.237Z,6.20
2022-11-14T08:56:20.092Z,6.20
2022-11-14T08:58:47.808Z,6.20
2022-11-14T09:01:15.526Z,6.30
2022-11-14T09:03:43.276Z,6.30
2022-11-14T09:06:11.158Z,6.30
2022-11-14T09:08:38.842Z,6.30
2022-11-14T09:11:10.150Z,6.30
2022-11-14T09:13:38.142Z,6.40
2022-11-14T09:16:06.156Z,6.40
2022-11-14T09:18:33.987Z,6.40
2022-11-14T09:21:02.416Z,6.40
2022-11-14T09:23:30.672Z,6.40
2022-11-14T09:25:58.682Z,6.40
2022-11-14T09:28:27.714Z,6.50
2022-11-14T09:31:00.674Z,6.50
2022-11-14T09:33:28.568Z,6.60
2022-11-14T09:35:59.552Z,6.70
2022-11-14T09:38:27.586Z,6.70
2022-11-14T09:41:01.637Z,6.80
2022-11-14T09:43:48.574Z,6.90
2022-11-14T09:46:19.780Z,7.00
2022-11-14T09:48:47.558Z,7.10
2022-11-14T09:51:17.096Z,7.20
2022-11-14T09:53:48.848Z,7.50
2022-11-14T09:56:20.775Z,7.70
2022-11-14T09:58:49.772Z,7.70
2022-11-14T10:01:23.142Z,7.70
2022-11-14T10:03:52.328Z,7.80
2022-11-14T10:06:25.537Z,7.90
2022-11-14T10:09:06.061Z,7.90
2022-11-14T10:11:36.478Z,7.90
2022-11-14T10:14:13.485Z,7.90
2022-11-14T10:16:45.609Z,7.90
2022-11-14T10:19:18.035Z,7.90
2022-11-14T10:21:52.526Z,7.90
2022-11-14T10:24:29.760Z,7.80
2022-11-14T10:27:01.392Z,7.80
2022-11-14T10:29:38.833Z,7.80
2022-11-14T10:32:11.610Z,8.10
2022-11-14T10:34:43.779Z,8.10
2022-11-14T10:37:15.605Z,8.20
2022-11-14T10:39:45.382Z,8.20
2022-11-14T10:42:15.359Z,8.20
2022-11-14T10:44:44.316Z,8.20
2022-11-14T10:47:15.235Z,8.20
2022-11-14T10:49:43.514Z,8.10
2022-11-14T10:52:13.859Z,8.20
2022-11-14T10:54:43.212Z,8.30
2022-11-14T10:57:15.671Z,8.30
2022-11-14T10:59:44.060Z,8.50
2022-11-14T11:02:13.064Z,8.90
2022-11-14T11:04:41.651Z,9.20
2022-11-14T11:07:43.956Z,9.40
2022-11-14T11:10:37.853Z,9.80
2022-11-14T11:13:05.766Z,10.50
2022-11-14T11:15:40.610Z,10.50
2022-11-14T11:18:25.492Z,10.40
2022-11-14T11:21:03.129Z,10.30
2022-11-14T11:23:31.021Z,10.30
2022-11-14T11:26:05.545Z,10.30
2022-11-14T11:28:33.695Z,10.40
2022-11-14T11:31:02.359Z,10.50
2022-11-14T11:33:32.263Z,10.30
2022-11-14T11:36:01.474Z,10.10
2022-11-14T11:38:30.284Z,9.90
2022-11-14T11:41:01.438Z,9.80
2022-11-14T11:43:38.957Z,9.70
2022-11-14T11:46:11.495Z,10.10
2022-11-14T11:48:40.738Z,10.90
2022-11-14T11:51:17.486Z,11.70
2022-11-14T11:53:47.652Z,12.30
2022-11-14T11:56:16.991Z,12.80
2022-11-14T11:58:46.950Z,13.30
2022-11-14T12:01:15.211Z,13.50
2022-11-14T12:03:47.789Z,13.60
2022-11-14T12:06:16.500Z,13.40
2022-11-14T12:08:49.471Z,13.50
2022-11-14T12:11:19.424Z,13.60
2022-11-14T12:13:59.750Z,13.20
2022-11-14T12:16:36.553Z,12.80
2022-11-14T12:19:22.726Z,12.30
2022-11-14T12:22:02.535Z,11.80
2022-11-14T12:24:42.525Z,11.30
2022-11-14T12:27:16.352Z,10.90
2022-11-14T12:29:57.314Z,10.70
2022-11-14T12:32:29.351Z,10.60
2022-11-14T12:34:58.092Z,10.50
2022-11-14T12:37:31.846Z,10.30
2022-11-14T12:40:00.686Z,10.20
2022-11-14T12:42:28.578Z,10.10
2022-11-14T12:44:56.283Z,10.00
2022-11-14T12:47:24.633Z,9.90
2022-11-14T12:50:02.510Z,9.90
2022-11-14T12:52:45.492Z,9.90
2022-11-14T12:55:32.056Z,9.80
2022-11-14T12:58:03.224Z,9.70
2022-11-14T13:00:31.358Z,9.60
2022-11-14T13:03:18.827Z,9.60
2022-11-14T13:05:54.494Z,9.60
2022-11-14T13:08:39.901Z,9.60
2022-11-14T13:11:45.966Z,9.60
2022-11-14T13:14:31.036Z,9.50
2022-11-14T13:17:27.300Z,9.40
2022-11-14T13:20:12.509Z,9.40
2022-11-14T13:22:41.041Z,9.40
2022-11-14T13:25:20.843Z,9.40
2022-11-14T13:30:55.165Z,9.50
2022-11-14T13:33:37.720Z,9.50
2022-11-14T13:36:06.561Z,9.50
2022-11-14T13:38:52.247Z,9.50
2022-11-14T13:41:47.508Z,9.50
2022-11-14T13:47:01.926Z,9.70
2022-11-14T13:49:40.838Z,9.70
2022-11-14T13:52:08.576Z,9.70
2022-11-14T13:54:36.285Z,9.80
2022-11-14T13:57:07.573Z,9.70
2022-11-14T13:59:56.038Z,9.70
2022-11-14T14:02:36.772Z,9.70
2022-11-14T14:05:12.053Z,9.70
2022-11-14T14:07:48.318Z,9.60
2022-11-14T14:10:24.093Z,9.60
2022-11-14T14:12:59.727Z,9.60
2022-11-14T14:15:30.157Z,9.70
2022-11-14T14:18:05.728Z,9.70
2022-11-14T14:20:38.378Z,9.70
2022-11-14T14:23:13.787Z,9.80
2022-11-14T14:25:44.955Z,9.70
2022-11-14T14:28:16.577Z,9.90
2022-11-14T14:30:59.166Z,10.00
2022-11-14T14:33:30.093Z,10.10
2022-11-14T14:35:57.805Z,10.10
2022-11-14T14:38:26.309Z,10.20
2022-11-14T14:40:55.185Z,10.10
2022-11-14T14:43:25.437Z,10.20
2022-11-14T14:45:53.958Z,10.10
2022-11-14T14:48:24.234Z,10.10
2022-11-14T14:50:54.374Z,10.10
2022-11-14T14:53:22.754Z,10.10
2022-11-14T14:55:54.477Z,10.10
2022-11-14T14:58:26.576Z,10.20
2022-11-14T15:00:56.379Z,10.20
2022-11-14T15:03:25.521Z,10.20
2022-11-14T15:06:00.185Z,10.30
2022-11-14T15:08:28.789Z,10.30
2022-11-14T15:10:58.557Z,10.30
2022-11-14T15:13:27.326Z,10.20
2022-11-14T15:15:55.123Z,10.30
2022-11-14T15:18:24.579Z,10.20
2022-11-14T15:21:10.052Z,10.30
2022-11-14T15:23:38.348Z,10.30
2022-11-14T15:26:12.415Z,10.30
2022-11-14T15:28:40.111Z,10.30
2022-11-14T15:31:07.961Z,10.30
2022-11-14T15:33:36.571Z,10.30
2022-11-14T15:36:09.684Z,10.30
2022-11-14T15:38:53.789Z,10.30
2022-11-14T15:41:22.653Z,10.30
2022-11-14T15:43:52.955Z,10.30
2022-11-14T15:46:35.650Z,10.10
2022-11-14T15:49:09.520Z,10.10
2022-11-14T15:51:44.312Z,10.10
2022-11-14T15:54:25.812Z,10.10
2022-11-14T15:56:54.041Z,10.00
2022-11-14T15:59:21.717Z,10.00
2022-11-14T16:01:51.402Z,10.00
2022-11-14T16:04:19.766Z,10.00
2022-11-14T16:06:48.922Z,10.00
2022-11-14T16:09:17.533Z,9.90
2022-11-14T16:11:45.357Z,9.80
2022-11-14T16:14:13.074Z,9.90
2022-11-14T16:16:41.032Z,9.90
2022-11-14T16:19:08.811Z,9.80
2022-11-14T16:21:38.208Z,9.80
2022-11-14T16:24:07.996Z,9.90
2022-11-14T16:26:35.964Z,9.90
2022-11-14T16:29:03.653Z,9.90
2022-11-14T16:31:31.390Z,9.90
2022-11-14T16:33:59.103Z,9.90
2022-11-14T16:36:26.786Z,9.80
2022-11-14T16:38:59.274Z,9.80
2022-11-14T16:41:28.409Z,9.80
2022-11-14T16:43:56.350Z,9.80
2022-11-14T16:46:24.286Z,9.80
2022-11-14T16:48:52.276Z,9.80
2022-11-14T16:51:46.569Z,9.80
2022-11-14T16:54:07.663Z,9.70
2022-11-14T16:56:36.761Z,9.80
2022-11-14T16:59:04.680Z,9.80
2022-11-14T17:01:32.545Z,9.90
2022-11-14T17:04:00.995Z,9.80
2022-11-14T17:06:28.724Z,9.80
2022-11-14T17:08:56.560Z,9.80
2022-11-14T17:11:24.337Z,9.80
2022-11-14T17:13:53.547Z,9.80
2022-11-14T17:16:21.238Z,9.90
2022-11-14T17:18:51.231Z,9.80
2022-11-14T17:21:18.916Z,9.90
2022-11-14T17:23:46.727Z,9.90
2022-11-14T17:26:14.726Z,9.80
2022-11-14T17:28:43.185Z,9.70
2022-11-14T17:31:12.233Z,9.80
2022-11-14T17:33:39.925Z,9.70
2022-11-14T17:36:08.722Z,9.80
2022-11-14T17:38:37.340Z,9.70
2022-11-14T17:41:05.702Z,9.70
2022-11-14T17:43:38.676Z,9.70
2022-11-14T17:46:12.672Z,9.70
2022-11-14T17:48:44.322Z,9.70
2022-11-14T17:51:13.031Z,9.70
2022-11-14T17:53:40.728Z,9.70
2022-11-14T17:56:08.755Z,9.70
2022-11-14T17:58:36.478Z,9.70
2022-11-14T18:01:09.570Z,9.70
2022-11-14T18:03:37.522Z,9.80
2022-11-14T18:06:07.261Z,9.70
2022-11-14T18:08:35.303Z,9.70
2022-11-14T18:11:03.224Z,9.70
2022-11-14T18:13:31.295Z,9.70
2022-11-14T18:16:01.395Z,9.70
2022-11-14T18:18:30.681Z,9.70
2022-11-14T18:20:58.651Z,9.70
2022-11-14T18:23:27.659Z,9.70
2022-11-14T18:25:55.461Z,9.70
2022-11-14T18:28:23.697Z,9.70
2022-11-14T18:30:55.600Z,9.70
2022-11-14T18:33:23.546Z,9.70
2022-11-14T18:35:57.830Z,9.70
2022-11-14T18:38:25.697Z,9.70
2022-11-14T18:40:57.559Z,9.80
2022-11-14T18:43:25.505Z,9.80
2022-11-14T18:45:53.282Z,9.80
2022-11-14T18:48:21.436Z,9.80
2022-11-14T18:50:49.361Z,9.80
2022-11-14T18:53:17.023Z,9.80
2022-11-14T18:55:44.954Z,9.70
2022-11-14T18:58:15.676Z,9.70
2022-11-14T19:00:45.103Z,9.70
2022-11-14T19:03:14.273Z,9.70
2022-11-14T19:05:42.017Z,9.70
2022-11-14T19:08:09.721Z,9.60
2022-11-14T19:10:37.407Z,9.60
2022-11-14T19:13:05.206Z,9.60
2022-11-14T19:15:34.278Z,9.60
2022-11-14T19:18:01.950Z,9.60
2022-11-14T19:20:29.629Z,9.60
2022-11-14T19:22:57.325Z,9.60
2022-11-14T19:25:24.998Z,9.60
2022-11-14T19:27:52.803Z,9.60
2022-11-14T19:30:20.453Z,9.60
2022-11-14T19:32:49.514Z,9.60
2022-11-14T19:35:20.485Z,9.60
2022-11-14T19:37:48.545Z,9.60
2022-11-14T19:40:16.226Z,9.60
2022-11-14T19:42:44.012Z,9.60
2022-11-14T19:45:11.905Z,9.60
2022-11-14T19:47:39.562Z,9.60
2022-11-14T19:50:09.848Z,9.60
2022-11-14T19:52:37.610Z,9.60
2022-11-14T19:55:05.572Z,9.60
2022-11-14T19:57:33.262Z,9.50
2022-11-14T20:00:00.981Z,9.60
2022-11-14T20:02:29.476Z,9.60
2022-11-14T20:04:57.182Z,9.50
2022-11-14T20:07:26.229Z,9.50
2022-11-14T20:09:54.022Z,9.40
2022-11-14T20:12:21.721Z,9.40
2022-11-14T20:14:49.396Z,9.40
2022-11-14T20:17:17.066Z,9.30
2022-11-14T20:19:44.844Z,9.30
2022-11-14T20:22:12.517Z,9.20
2022-11-14T20:24:41.516Z,9.20
2022-11-14T20:27:09.245Z,9.20
2022-11-14T20:29:36.937Z,9.20
2022-11-14T20:32:04.616Z,9.20
2022-11-14T20:34:32.462Z,9.10
2022-11-14T20:37:15.388Z,9.10
2022-11-14T20:39:44.461Z,9.00
2022-11-14T20:42:12.114Z,9.00
2022-11-14T20:44:39.770Z,9.00
2022-11-14T20:47:10.956Z,9.00
2022-11-14T20:49:39.108Z,9.00
2022-11-14T20:52:06.789Z,8.90
2022-11-14T20:54:34.464Z,9.00
2022-11-14T20:57:03.502Z,9.00
2022-11-14T20:59:31.200Z,9.00
2022-11-14T21:01:58.992Z,9.00
2022-11-14T21:04:26.710Z,8.90
2022-11-14T21:06:54.405Z,9.00
2022-11-14T21:09:22.178Z,8.90
2022-11-14T21:11:49.873Z,8.90
2022-11-14T21:14:18.900Z,9.00
2022-11-14T21:16:46.616Z,9.00
2022-11-14T21:19:14.285Z,9.00
2022-11-14T21:21:42.078Z,9.00
2022-11-14T21:24:09.760Z,9.00
2022-11-14T21:26:38.730Z,9.00
2022-11-14T21:29:07.142Z,9.00
2022-11-14T21:31:36.892Z,9.10
2022-11-14T21:34:07.298Z,9.10
2022-11-14T21:36:44.957Z,9.10
2022-11-14T21:39:15.264Z,9.10
2022-11-14T21:41:43.397Z,9.20
2022-11-14T21:44:11.835Z,9.30
2022-11-14T21:46:41.048Z,9.30
2022-11-14T21:49:08.935Z,9.30
2022-11-14T21:51:36.799Z,9.40
2022-11-14T21:54:06.264Z,9.40
2022-11-14T21:56:34.428Z,9.50
2022-11-14T21:59:15.769Z,9.50
2022-11-14T22:02:04.346Z,9.50
2022-11-14T22:04:32.511Z,9.60
2022-11-14T22:07:00.560Z,9.60
2022-11-14T22:09:28.506Z,9.70
2022-11-14T22:11:56.482Z,9.70
2022-11-14T22:14:24.433Z,9.70
2022-11-14T22:16:53.648Z,9.80
2022-11-14T22:19:21.699Z,10.10
2022-11-14T22:21:49.382Z,10.20
2022-11-14T22:24:17.057Z,10.30
2022-11-14T22:26:44.762Z,10.50
2022-11-14T22:29:12.450Z,10.60
2022-11-14T22:31:40.132Z,10.80
2022-11-14T22:34:09.481Z,10.80
2022-11-14T22:36:37.406Z,11.00
2022-11-14T22:39:05.481Z,11.10
2022-11-14T22:41:33.975Z,11.20
2022-11-14T22:44:02.053Z,11.20
2022-11-14T22:46:29.832Z,11.20
2022-11-14T22:48:58.296Z,11.20
2022-11-14T22:51:28.155Z,11.20
2022-11-14T22:53:56.678Z,11.10
2022-11-14T22:56:25.127Z,11.10
2022-11-14T22:58:52.830Z,11.00
2022-11-14T23:01:21.997Z,11.10
2022-11-14T23:03:53.498Z,10.90
2022-11-14T23:06:21.201Z,10.80
2022-11-14T23:08:50.672Z,10.70
2022-11-14T23:11:19.193Z,10.50
2022-11-14T23:13:48.250Z,10.40
2022-11-14T23:16:17.043Z,10.40
2022-11-14T23:18:44.873Z,10.40
2022-11-14T23:21:13.490Z,10.40
2022-11-14T23:23:41.184Z,10.50
2022-11-14T23:26:11.382Z,10.60
2022-11-14T23:28:40.165Z,10.60
2022-11-14T23:31:08.348Z,10.60
2022-11-14T23:33:36.218Z,10.60
2022-11-14T23:36:04.067Z,10.60
2022-11-14T23:38:31.957Z,10.70
2022-11-14T23:41:00.527Z,10.60
2022-11-14T23:43:30.444Z,10.60
2022-11-14T23:45:58.636Z,10.60
2022-11-14T23:48:26.329Z,10.60
2022-11-14T23:50:55.753Z,10.60
2022-11-14T23:53:23.800Z,10.60
2022-11-14T23:55:54.868Z,10.60
2022-11-14T23:58:23.100Z,10.60
